IRM25W OIIE-OMDB
Flight info
| Callsign | IRM25W |
|---|---|
| Flight time | 1h 45m |
| Altitude | 37000 |
| Route | EGVEL P574 SYZ G666 ORSAR/N0449F250 R784 TATLA L223 VUTEB |
| Aircraft | A346/H-SDE2E3FGHIJ3J4J5M1RWXY/LB1D1 |
Departure
| Time | 2026-04-21 21:33 |
|---|---|
| Airport | Imam Khomeini International Airport (OIIE) |
Arrival
| Time | 2026-04-21 23:18 |
|---|---|
| Airport | Dubai International Airport (OMDB) |
| Time | Latitude | Longitude | Altitude | Speed | Heading |
|---|---|---|---|---|---|
| 2026-04-21 21:07 | 35.41224 | 51.15437 | 3323 ft | 0 kts | 68° |
| 2026-04-21 21:21 | 35.41224 | 51.15436 | 3323 ft | 0 kts | 68° |
| 2026-04-21 21:24 | 35.41221 | 51.15422 | 3323 ft | 2 kts | 65° |
| 2026-04-21 21:24 | 35.41215 | 51.15405 | 3323 ft | 2 kts | 64° |
| 2026-04-21 21:24 | 35.41209 | 51.15388 | 3323 ft | 2 kts | 67° |
| 2026-04-21 21:25 | 35.41203 | 51.15371 | 3323 ft | 2 kts | 68° |
| 2026-04-21 21:25 | 35.41199 | 51.15360 | 3323 ft | 2 kts | 68° |
| 2026-04-21 21:25 | 35.41194 | 51.15343 | 3323 ft | 2 kts | 75° |
| 2026-04-21 21:25 | 35.41192 | 51.15325 | 3323 ft | 2 kts | 83° |
| 2026-04-21 21:26 | 35.41190 | 51.15307 | 3323 ft | 2 kts | 89° |
| 2026-04-21 21:26 | 35.41190 | 51.15301 | 3323 ft | 2 kts | 91° |
| 2026-04-21 21:27 | 35.41199 | 51.15245 | 3323 ft | 0 kts | 106° |
| 2026-04-21 21:28 | 35.41195 | 51.15262 | 3323 ft | 7 kts | 107° |
| 2026-04-21 21:29 | 35.41166 | 51.15368 | 3323 ft | 18 kts | 108° |
| 2026-04-21 21:29 | 35.41114 | 51.15552 | 3323 ft | 27 kts | 109° |
| 2026-04-21 21:29 | 35.41071 | 51.15707 | 3323 ft | 17 kts | 109° |
| 2026-04-21 21:29 | 35.41034 | 51.15840 | 3323 ft | 18 kts | 109° |
| 2026-04-21 21:30 | 35.40997 | 51.15971 | 3323 ft | 17 kts | 110° |
| 2026-04-21 21:30 | 35.40946 | 51.16149 | 3323 ft | 26 kts | 109° |
| 2026-04-21 21:30 | 35.40905 | 51.16304 | 3323 ft | 18 kts | 96° |
| 2026-04-21 21:30 | 35.40966 | 51.16394 | 3323 ft | 15 kts | 22° |
| 2026-04-21 21:31 | 35.41064 | 51.16436 | 3323 ft | 16 kts | 19° |
| 2026-04-21 21:31 | 35.41190 | 51.16491 | 3323 ft | 20 kts | 18° |
| 2026-04-21 21:31 | 35.41291 | 51.16532 | 3323 ft | 10 kts | 18° |
| 2026-04-21 21:31 | 35.41329 | 51.16523 | 3323 ft | 6 kts | 322° |
| 2026-04-21 21:32 | 35.41353 | 51.16454 | 3323 ft | 14 kts | 289° |
| 2026-04-21 21:32 | 35.41448 | 51.16113 | 3323 ft | 76 kts | 289° |
| 2026-04-21 21:32 | 35.41694 | 51.15231 | 3323 ft | 139 kts | 289° |
| 2026-04-21 21:32 | 35.42060 | 51.13911 | 3323 ft | 179 kts | 290° |
| 2026-04-21 21:33 | 35.42497 | 51.12389 | 3649 ft | 192 kts | 289° |
| 2026-04-21 21:33 | 35.42947 | 51.10801 | 4266 ft | 197 kts | 289° |
| 2026-04-21 21:33 | 35.43418 | 51.09135 | 4772 ft | 211 kts | 289° |
| 2026-04-21 21:33 | 35.43581 | 51.07303 | 5272 ft | 223 kts | 257° |
| 2026-04-21 21:34 | 35.42900 | 51.05575 | 5834 ft | 231 kts | 233° |
| 2026-04-21 21:34 | 35.41787 | 51.04135 | 6500 ft | 235 kts | 220° |
| 2026-04-21 21:34 | 35.40433 | 51.02941 | 7095 ft | 248 kts | 212° |
| 2026-04-21 21:34 | 35.38924 | 51.01779 | 7622 ft | 267 kts | 212° |
| 2026-04-21 21:35 | 35.37451 | 51.00312 | 8221 ft | 281 kts | 230° |
| 2026-04-21 21:35 | 35.36141 | 50.98510 | 9066 ft | 285 kts | 219° |
| 2026-04-21 21:35 | 35.34537 | 50.97141 | 9937 ft | 288 kts | 211° |
| 2026-04-21 21:35 | 35.33386 | 50.96306 | 10481 ft | 292 kts | 210° |
| 2026-04-21 21:36 | 35.30954 | 50.94577 | 11160 ft | 314 kts | 210° |
| 2026-04-21 21:36 | 35.29017 | 50.93169 | 11603 ft | 333 kts | 211° |
| 2026-04-21 21:36 | 35.26969 | 50.91653 | 12037 ft | 352 kts | 211° |
| 2026-04-21 21:36 | 35.24822 | 50.90047 | 12449 ft | 372 kts | 211° |
| 2026-04-21 21:37 | 35.22572 | 50.88354 | 13029 ft | 385 kts | 212° |
| 2026-04-21 21:37 | 35.20292 | 50.86634 | 13879 ft | 390 kts | 212° |
| 2026-04-21 21:37 | 35.17954 | 50.84869 | 14765 ft | 393 kts | 212° |
| 2026-04-21 21:37 | 35.15641 | 50.83123 | 15571 ft | 398 kts | 212° |
| 2026-04-21 21:38 | 35.13285 | 50.81344 | 16358 ft | 403 kts | 212° |
| 2026-04-21 21:38 | 35.10869 | 50.79522 | 17141 ft | 408 kts | 212° |
| 2026-04-21 21:38 | 35.08408 | 50.77667 | 17910 ft | 412 kts | 212° |
| 2026-04-21 21:38 | 35.05959 | 50.75822 | 18649 ft | 417 kts | 212° |
| 2026-04-21 21:39 | 35.03461 | 50.73940 | 19378 ft | 421 kts | 212° |
| 2026-04-21 21:39 | 35.00945 | 50.72047 | 20089 ft | 426 kts | 212° |
| 2026-04-21 21:39 | 34.98435 | 50.70161 | 20773 ft | 430 kts | 212° |
| 2026-04-21 21:39 | 34.95876 | 50.68239 | 21446 ft | 434 kts | 212° |
| 2026-04-21 21:40 | 34.93260 | 50.66276 | 22108 ft | 438 kts | 212° |
| 2026-04-21 21:40 | 34.90631 | 50.64304 | 22750 ft | 443 kts | 212° |
| 2026-04-21 21:40 | 34.87984 | 50.62326 | 23380 ft | 447 kts | 212° |
| 2026-04-21 21:40 | 34.85299 | 50.60328 | 23986 ft | 451 kts | 212° |
| 2026-04-21 21:41 | 34.82642 | 50.58349 | 24564 ft | 455 kts | 212° |
| 2026-04-21 21:41 | 34.79926 | 50.56324 | 25138 ft | 459 kts | 212° |
| 2026-04-21 21:41 | 34.77179 | 50.54272 | 25701 ft | 463 kts | 212° |
| 2026-04-21 21:41 | 34.74360 | 50.52393 | 26215 ft | 467 kts | 201° |
| 2026-04-21 21:42 | 34.71119 | 50.51460 | 26705 ft | 471 kts | 184° |
| 2026-04-21 21:42 | 34.67860 | 50.51727 | 27213 ft | 473 kts | 167° |
| 2026-04-21 21:42 | 34.64666 | 50.52971 | 27931 ft | 471 kts | 161° |
| 2026-04-21 21:42 | 34.61587 | 50.54312 | 28695 ft | 468 kts | 160° |
| 2026-04-21 21:43 | 34.58529 | 50.55644 | 29370 ft | 466 kts | 160° |
| 2026-04-21 21:43 | 34.55499 | 50.56957 | 29973 ft | 465 kts | 161° |
| 2026-04-21 21:43 | 34.52474 | 50.58260 | 30546 ft | 464 kts | 161° |
| 2026-04-21 21:43 | 34.49454 | 50.59555 | 31101 ft | 463 kts | 161° |
| 2026-04-21 21:44 | 34.46427 | 50.60849 | 31640 ft | 462 kts | 161° |
| 2026-04-21 21:44 | 34.43425 | 50.62130 | 32156 ft | 461 kts | 161° |
| 2026-04-21 21:44 | 34.40387 | 50.63425 | 32660 ft | 460 kts | 161° |
| 2026-04-21 21:44 | 34.37398 | 50.64697 | 33137 ft | 459 kts | 161° |
| 2026-04-21 21:45 | 34.34379 | 50.65981 | 33601 ft | 458 kts | 161° |
| 2026-04-21 21:45 | 34.31426 | 50.67236 | 34038 ft | 457 kts | 161° |
| 2026-04-21 21:45 | 34.28418 | 50.68513 | 34466 ft | 456 kts | 161° |
| 2026-04-21 21:45 | 34.25456 | 50.69769 | 34871 ft | 455 kts | 161° |
| 2026-04-21 21:46 | 34.22464 | 50.71037 | 35260 ft | 455 kts | 161° |
| 2026-04-21 21:46 | 34.19511 | 50.72288 | 35631 ft | 454 kts | 161° |
| 2026-04-21 21:46 | 34.16509 | 50.73558 | 35985 ft | 453 kts | 161° |
| 2026-04-21 21:46 | 34.13579 | 50.74797 | 36304 ft | 452 kts | 161° |
| 2026-04-21 21:47 | 34.10595 | 50.76059 | 36600 ft | 452 kts | 161° |
| 2026-04-21 21:47 | 34.07643 | 50.77305 | 36860 ft | 452 kts | 161° |
| 2026-04-21 21:47 | 34.05639 | 50.78151 | 36952 ft | 453 kts | 161° |
| 2026-04-21 21:48 | 33.98598 | 50.81119 | 36969 ft | 464 kts | 161° |
| 2026-04-21 21:48 | 33.92515 | 50.83678 | 36970 ft | 465 kts | 161° |
| 2026-04-21 21:49 | 33.86427 | 50.86232 | 36970 ft | 465 kts | 161° |
| 2026-04-21 21:49 | 33.80344 | 50.88775 | 36970 ft | 465 kts | 161° |
| 2026-04-21 21:50 | 33.74259 | 50.91325 | 36970 ft | 465 kts | 161° |
| 2026-04-21 21:50 | 33.68175 | 50.93873 | 36970 ft | 465 kts | 161° |
| 2026-04-21 21:51 | 33.62123 | 50.96404 | 36970 ft | 465 kts | 161° |
| 2026-04-21 21:51 | 33.56010 | 50.98959 | 36970 ft | 464 kts | 161° |
| 2026-04-21 21:52 | 33.49931 | 51.01494 | 36970 ft | 464 kts | 161° |
| 2026-04-21 21:52 | 33.43881 | 51.04002 | 36970 ft | 464 kts | 161° |
| 2026-04-21 21:53 | 33.37764 | 51.06533 | 36970 ft | 465 kts | 161° |
| 2026-04-21 21:53 | 33.31684 | 51.09050 | 36970 ft | 465 kts | 161° |
| 2026-04-21 21:54 | 33.25633 | 51.11554 | 36970 ft | 465 kts | 161° |
| 2026-04-21 21:54 | 33.19540 | 51.14072 | 36970 ft | 465 kts | 161° |
| 2026-04-21 21:55 | 33.13435 | 51.16591 | 36970 ft | 465 kts | 161° |
| 2026-04-21 21:55 | 33.07356 | 51.19096 | 36970 ft | 465 kts | 161° |
| 2026-04-21 21:56 | 33.01252 | 51.21607 | 36970 ft | 465 kts | 161° |
| 2026-04-21 21:56 | 32.95188 | 51.24099 | 36970 ft | 465 kts | 161° |
| 2026-04-21 21:57 | 32.89076 | 51.26609 | 36970 ft | 465 kts | 161° |
| 2026-04-21 21:57 | 32.82984 | 51.29090 | 36970 ft | 465 kts | 161° |
| 2026-04-21 21:58 | 32.76888 | 51.31574 | 36970 ft | 465 kts | 161° |
| 2026-04-21 21:58 | 32.70809 | 51.34058 | 36970 ft | 465 kts | 161° |
| 2026-04-21 21:59 | 32.64708 | 51.36555 | 36970 ft | 465 kts | 161° |
| 2026-04-21 21:59 | 32.58623 | 51.39040 | 36970 ft | 465 kts | 161° |
| 2026-04-21 22:00 | 32.52527 | 51.41515 | 36970 ft | 465 kts | 161° |
| 2026-04-21 22:00 | 32.46448 | 51.43970 | 36970 ft | 465 kts | 161° |
| 2026-04-21 22:01 | 32.40366 | 51.46432 | 36970 ft | 465 kts | 161° |
| 2026-04-21 22:01 | 32.34271 | 51.48899 | 36970 ft | 465 kts | 161° |
| 2026-04-21 22:02 | 32.28167 | 51.51368 | 36970 ft | 465 kts | 161° |
| 2026-04-21 22:02 | 32.22097 | 51.53820 | 36970 ft | 465 kts | 161° |
| 2026-04-21 22:03 | 32.15990 | 51.56284 | 36970 ft | 465 kts | 161° |
| 2026-04-21 22:03 | 32.09884 | 51.58745 | 36970 ft | 465 kts | 161° |
| 2026-04-21 22:04 | 32.03848 | 51.61174 | 36970 ft | 465 kts | 161° |
| 2026-04-21 22:04 | 31.97773 | 51.63616 | 36970 ft | 465 kts | 161° |
| 2026-04-21 22:05 | 31.91659 | 51.66079 | 36970 ft | 465 kts | 161° |
| 2026-04-21 22:05 | 31.85579 | 51.68537 | 36970 ft | 464 kts | 161° |
| 2026-04-21 22:06 | 31.79453 | 51.70990 | 36970 ft | 464 kts | 161° |
| 2026-04-21 22:06 | 31.73379 | 51.73415 | 36970 ft | 464 kts | 161° |
| 2026-04-21 22:07 | 31.67274 | 51.75848 | 36970 ft | 464 kts | 161° |
| 2026-04-21 22:07 | 31.61186 | 51.78276 | 36970 ft | 464 kts | 161° |
| 2026-04-21 22:08 | 31.55117 | 51.80695 | 36970 ft | 464 kts | 161° |
| 2026-04-21 22:08 | 31.49022 | 51.83122 | 36970 ft | 464 kts | 161° |
| 2026-04-21 22:09 | 31.42920 | 51.85550 | 36970 ft | 464 kts | 161° |
| 2026-04-21 22:09 | 31.36799 | 51.87980 | 36970 ft | 464 kts | 161° |
| 2026-04-21 22:10 | 31.30728 | 51.90377 | 36970 ft | 464 kts | 161° |
| 2026-04-21 22:10 | 31.24609 | 51.92794 | 36970 ft | 464 kts | 161° |
| 2026-04-21 22:11 | 31.18505 | 51.95204 | 36970 ft | 464 kts | 161° |
| 2026-04-21 22:11 | 31.12443 | 51.97596 | 36970 ft | 464 kts | 161° |
| 2026-04-21 22:12 | 31.06320 | 52.00008 | 36970 ft | 464 kts | 161° |
| 2026-04-21 22:12 | 31.00238 | 52.02402 | 36970 ft | 464 kts | 161° |
| 2026-04-21 22:13 | 30.94147 | 52.04796 | 36970 ft | 464 kts | 161° |
| 2026-04-21 22:13 | 30.88011 | 52.07203 | 36970 ft | 464 kts | 161° |
| 2026-04-21 22:14 | 30.81902 | 52.09589 | 36970 ft | 464 kts | 161° |
| 2026-04-21 22:14 | 30.75824 | 52.11967 | 36970 ft | 464 kts | 161° |
| 2026-04-21 22:15 | 30.69716 | 52.14359 | 36970 ft | 464 kts | 161° |
| 2026-04-21 22:15 | 30.63629 | 52.16735 | 36970 ft | 464 kts | 161° |
| 2026-04-21 22:16 | 30.57485 | 52.19107 | 36970 ft | 464 kts | 161° |
| 2026-04-21 22:16 | 30.51374 | 52.21468 | 36970 ft | 464 kts | 161° |
| 2026-04-21 22:17 | 30.45295 | 52.23819 | 36970 ft | 464 kts | 161° |
| 2026-04-21 22:17 | 30.39184 | 52.26181 | 36970 ft | 464 kts | 161° |
| 2026-04-21 22:18 | 30.33085 | 52.28536 | 36970 ft | 464 kts | 161° |
| 2026-04-21 22:18 | 30.26988 | 52.30888 | 36970 ft | 464 kts | 161° |
| 2026-04-21 22:19 | 30.20867 | 52.33246 | 36970 ft | 464 kts | 161° |
| 2026-04-21 22:19 | 30.14778 | 52.35588 | 36970 ft | 464 kts | 161° |
| 2026-04-21 22:20 | 30.08638 | 52.37946 | 36970 ft | 464 kts | 161° |
| 2026-04-21 22:20 | 30.02543 | 52.40286 | 36970 ft | 464 kts | 161° |
| 2026-04-21 22:21 | 29.96457 | 52.42618 | 36970 ft | 464 kts | 161° |
| 2026-04-21 22:21 | 29.90322 | 52.44967 | 36970 ft | 464 kts | 161° |
| 2026-04-21 22:22 | 29.84210 | 52.47294 | 36970 ft | 464 kts | 161° |
| 2026-04-21 22:22 | 29.78087 | 52.49627 | 36970 ft | 464 kts | 161° |
| 2026-04-21 22:23 | 29.71975 | 52.51959 | 36970 ft | 464 kts | 161° |
| 2026-04-21 22:23 | 29.65880 | 52.54287 | 36970 ft | 465 kts | 161° |
| 2026-04-21 22:24 | 29.59734 | 52.56628 | 36970 ft | 465 kts | 161° |
| 2026-04-21 22:24 | 29.53762 | 52.59103 | 36970 ft | 465 kts | 157° |
| 2026-04-21 22:25 | 29.47935 | 52.62268 | 36970 ft | 465 kts | 153° |
| 2026-04-21 22:25 | 29.42173 | 52.65594 | 36970 ft | 465 kts | 153° |
| 2026-04-21 22:26 | 29.36426 | 52.68937 | 36970 ft | 465 kts | 153° |
| 2026-04-21 22:26 | 29.30677 | 52.72265 | 36970 ft | 465 kts | 153° |
| 2026-04-21 22:27 | 29.24908 | 52.75589 | 36970 ft | 465 kts | 153° |
| 2026-04-21 22:27 | 29.19128 | 52.78909 | 36970 ft | 465 kts | 153° |
| 2026-04-21 22:28 | 29.13367 | 52.82212 | 36970 ft | 465 kts | 153° |
| 2026-04-21 22:28 | 29.07559 | 52.85538 | 36970 ft | 465 kts | 153° |
| 2026-04-21 22:29 | 29.01799 | 52.88832 | 36970 ft | 465 kts | 153° |
| 2026-04-21 22:29 | 28.96044 | 52.92120 | 36970 ft | 465 kts | 153° |
| 2026-04-21 22:30 | 28.90298 | 52.95398 | 36970 ft | 465 kts | 153° |
| 2026-04-21 22:30 | 28.84506 | 52.98684 | 36970 ft | 465 kts | 153° |
| 2026-04-21 22:31 | 28.78734 | 53.01955 | 36970 ft | 465 kts | 153° |
| 2026-04-21 22:31 | 28.72985 | 53.05217 | 36970 ft | 465 kts | 153° |
| 2026-04-21 22:32 | 28.67190 | 53.08505 | 36970 ft | 465 kts | 153° |
| 2026-04-21 22:32 | 28.61441 | 53.11764 | 36970 ft | 465 kts | 153° |
| 2026-04-21 22:33 | 28.55664 | 53.15035 | 36970 ft | 465 kts | 153° |
| 2026-04-21 22:33 | 28.49899 | 53.18294 | 36970 ft | 465 kts | 153° |
| 2026-04-21 22:34 | 28.44127 | 53.21555 | 36970 ft | 465 kts | 153° |
| 2026-04-21 22:34 | 28.38345 | 53.24817 | 36970 ft | 465 kts | 153° |
| 2026-04-21 22:35 | 28.32578 | 53.28066 | 36970 ft | 465 kts | 153° |
| 2026-04-21 22:35 | 28.26763 | 53.31338 | 36970 ft | 465 kts | 153° |
| 2026-04-21 22:36 | 28.18119 | 53.36195 | 36970 ft | 465 kts | 153° |
| 2026-04-21 22:36 | 28.12323 | 53.39447 | 36970 ft | 465 kts | 153° |
| 2026-04-21 22:37 | 28.06566 | 53.42674 | 36970 ft | 464 kts | 153° |
| 2026-04-21 22:37 | 28.00807 | 53.45897 | 36970 ft | 464 kts | 153° |
| 2026-04-21 22:38 | 27.95008 | 53.49139 | 36970 ft | 464 kts | 153° |
| 2026-04-21 22:38 | 27.89235 | 53.52362 | 36970 ft | 464 kts | 153° |
| 2026-04-21 22:39 | 27.83419 | 53.55589 | 36970 ft | 464 kts | 153° |
| 2026-04-21 22:39 | 27.77642 | 53.58796 | 36970 ft | 464 kts | 153° |
| 2026-04-21 22:40 | 27.71847 | 53.62016 | 36970 ft | 464 kts | 153° |
| 2026-04-21 22:40 | 27.66105 | 53.65205 | 36970 ft | 464 kts | 154° |
| 2026-04-21 22:41 | 27.60320 | 53.68443 | 36970 ft | 464 kts | 154° |
| 2026-04-21 22:41 | 27.54518 | 53.71680 | 36970 ft | 464 kts | 154° |
| 2026-04-21 22:42 | 27.48732 | 53.74892 | 36970 ft | 464 kts | 154° |
| 2026-04-21 22:42 | 27.42948 | 53.78093 | 36970 ft | 464 kts | 154° |
| 2026-04-21 22:43 | 27.37100 | 53.81324 | 36970 ft | 464 kts | 154° |
| 2026-04-21 22:43 | 27.31472 | 53.84430 | 36970 ft | 464 kts | 154° |
| 2026-04-21 22:44 | 27.25680 | 53.87622 | 36970 ft | 464 kts | 154° |
| 2026-04-21 22:44 | 27.19910 | 53.90799 | 36970 ft | 464 kts | 154° |
| 2026-04-21 22:45 | 27.14208 | 53.93934 | 36970 ft | 464 kts | 154° |
| 2026-04-21 22:45 | 27.08330 | 53.97162 | 36970 ft | 464 kts | 154° |
| 2026-04-21 22:46 | 27.02525 | 54.00347 | 36970 ft | 464 kts | 154° |
| 2026-04-21 22:46 | 26.96744 | 54.03514 | 36970 ft | 464 kts | 154° |
| 2026-04-21 22:47 | 26.90959 | 54.06681 | 36970 ft | 464 kts | 154° |
| 2026-04-21 22:47 | 26.84707 | 54.10087 | 36970 ft | 465 kts | 154° |
| 2026-04-21 22:48 | 26.78850 | 54.13273 | 36970 ft | 465 kts | 154° |
| 2026-04-21 22:48 | 26.72925 | 54.16500 | 36970 ft | 465 kts | 154° |
| 2026-04-21 22:49 | 26.67015 | 54.19718 | 36970 ft | 465 kts | 154° |
| 2026-04-21 22:49 | 26.61134 | 54.22918 | 36970 ft | 465 kts | 154° |
| 2026-04-21 22:50 | 26.55480 | 54.25991 | 36970 ft | 465 kts | 154° |
| 2026-04-21 22:50 | 26.49932 | 54.29004 | 36970 ft | 465 kts | 154° |
| 2026-04-21 22:51 | 26.44123 | 54.32154 | 36970 ft | 465 kts | 154° |
| 2026-04-21 22:51 | 26.38364 | 54.35274 | 36970 ft | 465 kts | 154° |
| 2026-04-21 22:52 | 26.32565 | 54.38413 | 36970 ft | 465 kts | 154° |
| 2026-04-21 22:52 | 26.26756 | 54.41553 | 36970 ft | 465 kts | 154° |
| 2026-04-21 22:53 | 26.20940 | 54.44694 | 36970 ft | 465 kts | 154° |
| 2026-04-21 22:53 | 26.15033 | 54.47882 | 36970 ft | 465 kts | 154° |
| 2026-04-21 22:54 | 26.09182 | 54.51036 | 36970 ft | 464 kts | 154° |
| 2026-04-21 22:54 | 26.03312 | 54.54196 | 36970 ft | 464 kts | 154° |
| 2026-04-21 22:55 | 25.97488 | 54.57330 | 36970 ft | 464 kts | 154° |
| 2026-04-21 22:55 | 25.91627 | 54.60482 | 36970 ft | 464 kts | 154° |
| 2026-04-21 22:56 | 25.85706 | 54.63654 | 36970 ft | 464 kts | 154° |
| 2026-04-21 22:56 | 25.79931 | 54.67049 | 36968 ft | 464 kts | 145° |
| 2026-04-21 22:57 | 25.75085 | 54.71669 | 36399 ft | 461 kts | 136° |
| 2026-04-21 22:57 | 25.72778 | 54.74133 | 35647 ft | 462 kts | 136° |
| 2026-04-21 22:57 | 25.70481 | 54.76592 | 34919 ft | 463 kts | 136° |
| 2026-04-21 22:58 | 25.68154 | 54.79065 | 34132 ft | 462 kts | 136° |
| 2026-04-21 22:58 | 25.65842 | 54.81502 | 33353 ft | 457 kts | 136° |
| 2026-04-21 22:58 | 25.63550 | 54.83907 | 32576 ft | 452 kts | 136° |
| 2026-04-21 22:58 | 25.61396 | 54.86339 | 31798 ft | 447 kts | 126° |
| 2026-04-21 22:59 | 25.59887 | 54.89307 | 31021 ft | 442 kts | 114° |
| 2026-04-21 22:59 | 25.58685 | 54.92488 | 30230 ft | 437 kts | 112° |
| 2026-04-21 22:59 | 25.57541 | 54.95642 | 29442 ft | 433 kts | 112° |
| 2026-04-21 22:59 | 25.56387 | 54.98736 | 28658 ft | 429 kts | 112° |
| 2026-04-21 23:00 | 25.55201 | 55.01826 | 27864 ft | 425 kts | 113° |
| 2026-04-21 23:00 | 25.53923 | 55.04731 | 27091 ft | 421 kts | 119° |
| 2026-04-21 23:00 | 25.52503 | 55.07503 | 26324 ft | 418 kts | 120° |
| 2026-04-21 23:00 | 25.51044 | 55.10276 | 25544 ft | 414 kts | 120° |
| 2026-04-21 23:01 | 25.49605 | 55.13017 | 24767 ft | 411 kts | 120° |
| 2026-04-21 23:01 | 25.48186 | 55.15734 | 23992 ft | 407 kts | 120° |
| 2026-04-21 23:01 | 25.46775 | 55.18441 | 23213 ft | 404 kts | 121° |
| 2026-04-21 23:01 | 25.45157 | 55.20963 | 22429 ft | 400 kts | 130° |
| 2026-04-21 23:02 | 25.43337 | 55.23244 | 21659 ft | 397 kts | 132° |
| 2026-04-21 23:02 | 25.41501 | 55.25469 | 20887 ft | 393 kts | 132° |
| 2026-04-21 23:02 | 25.39653 | 55.27709 | 20104 ft | 390 kts | 131° |
| 2026-04-21 23:02 | 25.38028 | 55.30173 | 19319 ft | 411 kts | 119° |
| 2026-04-21 23:03 | 25.36741 | 55.32965 | 18547 ft | 407 kts | 115° |
| 2026-04-21 23:03 | 25.35565 | 55.35758 | 17771 ft | 395 kts | 114° |
| 2026-04-21 23:03 | 25.34445 | 55.38471 | 16997 ft | 384 kts | 114° |
| 2026-04-21 23:03 | 25.33347 | 55.41142 | 16215 ft | 375 kts | 114° |
| 2026-04-21 23:04 | 25.32276 | 55.43751 | 15430 ft | 367 kts | 114° |
| 2026-04-21 23:04 | 25.31198 | 55.46377 | 14627 ft | 359 kts | 114° |
| 2026-04-21 23:04 | 25.30153 | 55.48923 | 13832 ft | 353 kts | 114° |
| 2026-04-21 23:04 | 25.29147 | 55.51373 | 13054 ft | 347 kts | 114° |
| 2026-04-21 23:05 | 25.28137 | 55.53834 | 12256 ft | 342 kts | 114° |
| 2026-04-21 23:05 | 25.27147 | 55.56245 | 11465 ft | 337 kts | 114° |
| 2026-04-21 23:05 | 25.26179 | 55.58606 | 10680 ft | 332 kts | 114° |
| 2026-04-21 23:05 | 25.25234 | 55.60908 | 9905 ft | 328 kts | 114° |
| 2026-04-21 23:06 | 25.24210 | 55.63150 | 9125 ft | 324 kts | 118° |
| 2026-04-21 23:06 | 25.23106 | 55.65360 | 8332 ft | 321 kts | 119° |
| 2026-04-21 23:06 | 25.22012 | 55.67526 | 7545 ft | 318 kts | 119° |
| 2026-04-21 23:06 | 25.20931 | 55.69664 | 6759 ft | 315 kts | 119° |
| 2026-04-21 23:07 | 25.19872 | 55.71760 | 5981 ft | 312 kts | 119° |
| 2026-04-21 23:07 | 25.18816 | 55.73851 | 5233 ft | 308 kts | 119° |
| 2026-04-21 23:07 | 25.17782 | 55.75897 | 4764 ft | 294 kts | 119° |
| 2026-04-21 23:07 | 25.16811 | 55.77821 | 4595 ft | 273 kts | 119° |
| 2026-04-21 23:08 | 25.15920 | 55.79586 | 4451 ft | 255 kts | 119° |
| 2026-04-21 23:08 | 25.15070 | 55.81270 | 4145 ft | 247 kts | 119° |
| 2026-04-21 23:08 | 25.14097 | 55.82833 | 3825 ft | 246 kts | 141° |
| 2026-04-21 23:08 | 25.12635 | 55.83543 | 3538 ft | 246 kts | 176° |
| 2026-04-21 23:09 | 25.10968 | 55.83235 | 3243 ft | 244 kts | 206° |
| 2026-04-21 23:09 | 25.09630 | 55.82075 | 2938 ft | 243 kts | 234° |
| 2026-04-21 23:09 | 25.08954 | 55.80378 | 2635 ft | 242 kts | 259° |
| 2026-04-21 23:09 | 25.08680 | 55.78550 | 2366 ft | 241 kts | 261° |
| 2026-04-21 23:10 | 25.08419 | 55.76691 | 2298 ft | 241 kts | 261° |
| 2026-04-21 23:10 | 25.08143 | 55.74847 | 2291 ft | 241 kts | 260° |
| 2026-04-21 23:10 | 25.07855 | 55.73012 | 2290 ft | 241 kts | 260° |
| 2026-04-21 23:10 | 25.07561 | 55.71196 | 2283 ft | 229 kts | 260° |
| 2026-04-21 23:11 | 25.07340 | 55.69527 | 2273 ft | 209 kts | 271° |
| 2026-04-21 23:11 | 25.07659 | 55.68030 | 2269 ft | 196 kts | 294° |
| 2026-04-21 23:11 | 25.08354 | 55.66703 | 2294 ft | 197 kts | 303° |
| 2026-04-21 23:11 | 25.09122 | 55.65456 | 2294 ft | 197 kts | 304° |
| 2026-04-21 23:12 | 25.09902 | 55.64172 | 2295 ft | 197 kts | 303° |
| 2026-04-21 23:12 | 25.10643 | 55.62906 | 2284 ft | 188 kts | 302° |
| 2026-04-21 23:12 | 25.11296 | 55.61760 | 2261 ft | 165 kts | 302° |
| 2026-04-21 23:12 | 25.11910 | 55.60663 | 2289 ft | 164 kts | 302° |
| 2026-04-21 23:13 | 25.12507 | 55.59588 | 2293 ft | 164 kts | 301° |
| 2026-04-21 23:13 | 25.13106 | 55.58506 | 2295 ft | 164 kts | 301° |
| 2026-04-21 23:13 | 25.13709 | 55.57411 | 2294 ft | 164 kts | 301° |
| 2026-04-21 23:13 | 25.14297 | 55.56345 | 2295 ft | 164 kts | 301° |
| 2026-04-21 23:14 | 25.14901 | 55.55250 | 2295 ft | 164 kts | 301° |
| 2026-04-21 23:14 | 25.15494 | 55.54176 | 2294 ft | 164 kts | 301° |
| 2026-04-21 23:14 | 25.16098 | 55.53081 | 2295 ft | 164 kts | 301° |
| 2026-04-21 23:14 | 25.16705 | 55.51981 | 2295 ft | 164 kts | 301° |
| 2026-04-21 23:15 | 25.17293 | 55.50914 | 2294 ft | 164 kts | 301° |
| 2026-04-21 23:15 | 25.17890 | 55.49832 | 2200 ft | 164 kts | 301° |
| 2026-04-21 23:15 | 25.18487 | 55.48749 | 1986 ft | 163 kts | 301° |
| 2026-04-21 23:15 | 25.19080 | 55.47675 | 1775 ft | 162 kts | 301° |
| 2026-04-21 23:16 | 25.19657 | 55.46630 | 1568 ft | 162 kts | 301° |
| 2026-04-21 23:16 | 25.20243 | 55.45567 | 1355 ft | 161 kts | 301° |
| 2026-04-21 23:16 | 25.20825 | 55.44514 | 1143 ft | 161 kts | 301° |
| 2026-04-21 23:16 | 25.21397 | 55.43477 | 921 ft | 154 kts | 302° |
| 2026-04-21 23:17 | 25.21957 | 55.42464 | 720 ft | 153 kts | 302° |
| 2026-04-21 23:17 | 25.22503 | 55.41462 | 536 ft | 152 kts | 301° |
| 2026-04-21 23:17 | 25.23051 | 55.40468 | 328 ft | 152 kts | 301° |
| 2026-04-21 23:17 | 25.23600 | 55.39466 | 119 ft | 150 kts | 302° |
| 2026-04-21 23:18 | 25.24086 | 55.38581 | 39 ft | 110 kts | 302° |
| 2026-04-21 23:18 | 25.24366 | 55.38088 | 45 ft | 61 kts | 302° |
| 2026-04-21 23:18 | 25.24533 | 55.37787 | 48 ft | 30 kts | 300° |
| 2026-04-21 23:18 | 25.24604 | 55.37599 | 51 ft | 18 kts | 286° |
| 2026-04-21 23:19 | 25.24626 | 55.37441 | 56 ft | 20 kts | 269° |
| 2026-04-21 23:19 | 25.24631 | 55.37270 | 64 ft | 25 kts | 284° |
| 2026-04-21 23:19 | 25.24704 | 55.37117 | 72 ft | 20 kts | 302° |
| 2026-04-21 23:19 | 25.24763 | 55.36993 | 75 ft | 18 kts | 272° |
| 2026-04-21 23:20 | 25.24673 | 55.36891 | 75 ft | 22 kts | 210° |
| 2026-04-21 23:20 | 25.24563 | 55.36797 | 70 ft | 11 kts | 261° |
| 2026-04-21 23:20 | 25.24546 | 55.36700 | 66 ft | 10 kts | 266° |
| 2026-04-21 23:20 | 25.24565 | 55.36650 | 64 ft | 7 kts | 307° |
| 2026-04-21 23:21 | 25.24577 | 55.36633 | 63 ft | 2 kts | 309° |
| 2026-04-21 23:21 | 25.24584 | 55.36623 | 62 ft | 0 kts | 309° |